sensor_id;sensor_type;location;lat;lon;timestamp;P1;durP1;ratioP1;P2;durP2;ratioP2
54919;SDS011;63804;53.120;8.764;2023-11-22T00:00:36;10.35;;;6.00;;
54919;SDS011;63804;53.120;8.764;2023-11-22T00:03:03;11.45;;;6.55;;
54919;SDS011;63804;53.120;8.764;2023-11-22T00:05:31;10.75;;;5.75;;
54919;SDS011;63804;53.120;8.764;2023-11-22T00:07:59;10.85;;;6.43;;
54919;SDS011;63804;53.120;8.764;2023-11-22T00:10:27;9.32;;;5.85;;
54919;SDS011;63804;53.120;8.764;2023-11-22T00:12:55;11.93;;;6.85;;
54919;SDS011;63804;53.120;8.764;2023-11-22T00:15:23;10.32;;;6.00;;
54919;SDS011;63804;53.120;8.764;2023-11-22T00:17:50;11.40;;;6.00;;
54919;SDS011;63804;53.120;8.764;2023-11-22T00:20:18;9.15;;;5.40;;
54919;SDS011;63804;53.120;8.764;2023-11-22T00:22:48;9.88;;;5.68;;
54919;SDS011;63804;53.120;8.764;2023-11-22T00:25:17;11.38;;;6.60;;
54919;SDS011;63804;53.120;8.764;2023-11-22T00:27:46;11.13;;;6.45;;
54919;SDS011;63804;53.120;8.764;2023-11-22T00:30:14;10.05;;;5.90;;
54919;SDS011;63804;53.120;8.764;2023-11-22T00:32:42;10.93;;;5.88;;
54919;SDS011;63804;53.120;8.764;2023-11-22T00:35:10;10.35;;;6.20;;
54919;SDS011;63804;53.120;8.764;2023-11-22T00:37:38;9.35;;;6.22;;
54919;SDS011;63804;53.120;8.764;2023-11-22T00:40:06;10.05;;;5.82;;
54919;SDS011;63804;53.120;8.764;2023-11-22T00:42:38;10.70;;;6.13;;
54919;SDS011;63804;53.120;8.764;2023-11-22T00:45:09;9.75;;;6.45;;
54919;SDS011;63804;53.120;8.764;2023-11-22T00:47:37;10.13;;;6.47;;
54919;SDS011;63804;53.120;8.764;2023-11-22T00:50:06;10.18;;;5.80;;
54919;SDS011;63804;53.120;8.764;2023-11-22T00:52:35;10.20;;;6.22;;
54919;SDS011;63804;53.120;8.764;2023-11-22T00:55:03;10.75;;;6.28;;
54919;SDS011;63804;53.120;8.764;2023-11-22T00:57:31;10.95;;;7.03;;
54919;SDS011;63804;53.120;8.764;2023-11-22T00:59:59;11.07;;;6.43;;
54919;SDS011;63804;53.120;8.764;2023-11-22T01:02:27;10.55;;;6.45;;
54919;SDS011;63804;53.120;8.764;2023-11-22T01:04:55;12.60;;;6.63;;
54919;SDS011;63804;53.120;8.764;2023-11-22T01:07:23;10.98;;;6.35;;
54919;SDS011;63804;53.120;8.764;2023-11-22T01:09:50;11.73;;;6.50;;
54919;SDS011;63804;53.120;8.764;2023-11-22T01:12:18;13.95;;;6.82;;
54919;SDS011;63804;53.120;8.764;2023-11-22T01:14:46;11.43;;;6.68;;
54919;SDS011;63804;53.120;8.764;2023-11-22T01:17:14;11.32;;;6.53;;
54919;SDS011;63804;53.120;8.764;2023-11-22T01:19:42;12.65;;;7.20;;
54919;SDS011;63804;53.120;8.764;2023-11-22T01:22:10;10.43;;;6.30;;
54919;SDS011;63804;53.120;8.764;2023-11-22T01:24:37;10.73;;;6.32;;
54919;SDS011;63804;53.120;8.764;2023-11-22T01:27:06;11.55;;;6.63;;
54919;SDS011;63804;53.120;8.764;2023-11-22T01:29:33;11.07;;;6.63;;
54919;SDS011;63804;53.120;8.764;2023-11-22T01:32:02;11.45;;;6.55;;
54919;SDS011;63804;53.120;8.764;2023-11-22T01:34:30;12.93;;;6.90;;
54919;SDS011;63804;53.120;8.764;2023-11-22T01:36:58;10.73;;;6.70;;
54919;SDS011;63804;53.120;8.764;2023-11-22T01:39:25;11.70;;;6.88;;
54919;SDS011;63804;53.120;8.764;2023-11-22T01:41:56;12.48;;;6.90;;
54919;SDS011;63804;53.120;8.764;2023-11-22T01:44:26;11.27;;;6.88;;
54919;SDS011;63804;53.120;8.764;2023-11-22T01:46:54;10.90;;;6.55;;
54919;SDS011;63804;53.120;8.764;2023-11-22T01:49:23;11.02;;;6.65;;
54919;SDS011;63804;53.120;8.764;2023-11-22T01:51:51;11.20;;;6.80;;
54919;SDS011;63804;53.120;8.764;2023-11-22T01:54:19;10.57;;;6.45;;
54919;SDS011;63804;53.120;8.764;2023-11-22T01:56:48;11.70;;;6.60;;
54919;SDS011;63804;53.120;8.764;2023-11-22T01:59:17;10.45;;;6.38;;
54919;SDS011;63804;53.120;8.764;2023-11-22T02:01:45;11.43;;;6.45;;
54919;SDS011;63804;53.120;8.764;2023-11-22T02:04:13;11.77;;;6.75;;
54919;SDS011;63804;53.120;8.764;2023-11-22T02:06:41;13.30;;;6.70;;
54919;SDS011;63804;53.120;8.764;2023-11-22T02:09:09;10.57;;;6.70;;
54919;SDS011;63804;53.120;8.764;2023-11-22T02:11:41;11.15;;;6.90;;
54919;SDS011;63804;53.120;8.764;2023-11-22T02:14:16;11.68;;;6.40;;
54919;SDS011;63804;53.120;8.764;2023-11-22T02:16:44;11.25;;;7.05;;
54919;SDS011;63804;53.120;8.764;2023-11-22T02:19:16;12.35;;;7.43;;
54919;SDS011;63804;53.120;8.764;2023-11-22T02:21:44;11.68;;;7.22;;
54919;SDS011;63804;53.120;8.764;2023-11-22T02:24:12;11.10;;;6.72;;
54919;SDS011;63804;53.120;8.764;2023-11-22T02:26:44;10.65;;;6.72;;
54919;SDS011;63804;53.120;8.764;2023-11-22T02:29:13;12.02;;;7.70;;
54919;SDS011;63804;53.120;8.764;2023-11-22T02:31:42;11.45;;;7.15;;
54919;SDS011;63804;53.120;8.764;2023-11-22T02:34:13;12.80;;;6.60;;
54919;SDS011;63804;53.120;8.764;2023-11-22T02:36:43;11.35;;;7.63;;
54919;SDS011;63804;53.120;8.764;2023-11-22T02:39:25;11.50;;;6.10;;
54919;SDS011;63804;53.120;8.764;2023-11-22T02:42:01;13.70;;;6.95;;
54919;SDS011;63804;53.120;8.764;2023-11-22T02:44:28;10.13;;;6.40;;
54919;SDS011;63804;53.120;8.764;2023-11-22T02:46:56;10.32;;;6.60;;
54919;SDS011;63804;53.120;8.764;2023-11-22T02:49:25;11.13;;;6.78;;
54919;SDS011;63804;53.120;8.764;2023-11-22T02:51:52;11.32;;;7.00;;
54919;SDS011;63804;53.120;8.764;2023-11-22T02:54:20;10.85;;;6.88;;
54919;SDS011;63804;53.120;8.764;2023-11-22T02:56:49;11.50;;;6.65;;
54919;SDS011;63804;53.120;8.764;2023-11-22T02:59:16;11.98;;;7.07;;
54919;SDS011;63804;53.120;8.764;2023-11-22T03:01:44;10.50;;;6.78;;
54919;SDS011;63804;53.120;8.764;2023-11-22T03:04:13;11.63;;;7.32;;
54919;SDS011;63804;53.120;8.764;2023-11-22T03:06:41;13.10;;;7.53;;
54919;SDS011;63804;53.120;8.764;2023-11-22T03:09:09;12.50;;;7.38;;
54919;SDS011;63804;53.120;8.764;2023-11-22T03:11:36;11.57;;;7.80;;
54919;SDS011;63804;53.120;8.764;2023-11-22T03:14:06;11.80;;;7.10;;
54919;SDS011;63804;53.120;8.764;2023-11-22T03:16:34;10.90;;;7.00;;
54919;SDS011;63804;53.120;8.764;2023-11-22T03:19:01;10.45;;;7.05;;
54919;SDS011;63804;53.120;8.764;2023-11-22T03:21:29;11.85;;;7.07;;
54919;SDS011;63804;53.120;8.764;2023-11-22T03:23:57;11.80;;;6.95;;
54919;SDS011;63804;53.120;8.764;2023-11-22T03:26:28;10.70;;;7.10;;
54919;SDS011;63804;53.120;8.764;2023-11-22T03:28:55;11.57;;;6.85;;
54919;SDS011;63804;53.120;8.764;2023-11-22T03:31:23;10.90;;;7.10;;
54919;SDS011;63804;53.120;8.764;2023-11-22T03:33:51;10.50;;;7.20;;
54919;SDS011;63804;53.120;8.764;2023-11-22T03:36:19;11.23;;;7.55;;
54919;SDS011;63804;53.120;8.764;2023-11-22T03:38:46;11.80;;;7.18;;
54919;SDS011;63804;53.120;8.764;2023-11-22T03:41:14;10.52;;;6.78;;
54919;SDS011;63804;53.120;8.764;2023-11-22T03:43:42;10.57;;;6.63;;
54919;SDS011;63804;53.120;8.764;2023-11-22T03:46:10;11.52;;;7.38;;
54919;SDS011;63804;53.120;8.764;2023-11-22T03:48:38;11.27;;;6.53;;
54919;SDS011;63804;53.120;8.764;2023-11-22T03:51:06;11.75;;;7.70;;
54919;SDS011;63804;53.120;8.764;2023-11-22T03:53:34;12.80;;;7.30;;
54919;SDS011;63804;53.120;8.764;2023-11-22T03:58:43;11.98;;;7.45;;
54919;SDS011;63804;53.120;8.764;2023-11-22T04:01:11;11.02;;;7.13;;
54919;SDS011;63804;53.120;8.764;2023-11-22T04:03:40;12.45;;;7.43;;
54919;SDS011;63804;53.120;8.764;2023-11-22T04:06:08;10.85;;;6.60;;
54919;SDS011;63804;53.120;8.764;2023-11-22T04:08:36;10.52;;;7.03;;
54919;SDS011;63804;53.120;8.764;2023-11-22T04:11:05;11.20;;;6.88;;
54919;SDS011;63804;53.120;8.764;2023-11-22T04:13:33;10.52;;;7.00;;
54919;SDS011;63804;53.120;8.764;2023-11-22T04:16:01;13.43;;;6.63;;
54919;SDS011;63804;53.120;8.764;2023-11-22T04:18:29;11.30;;;4.63;;
54919;SDS011;63804;53.120;8.764;2023-11-22T04:20:58;12.65;;;7.45;;
54919;SDS011;63804;53.120;8.764;2023-11-22T04:23:28;14.50;;;8.48;;
54919;SDS011;63804;53.120;8.764;2023-11-22T04:25:56;11.63;;;4.75;;
54919;SDS011;63804;53.120;8.764;2023-11-22T04:28:25;13.23;;;8.05;;
54919;SDS011;63804;53.120;8.764;2023-11-22T04:30:54;17.35;;;5.35;;
54919;SDS011;63804;53.120;8.764;2023-11-22T04:33:21;66.35;;;11.52;;
54919;SDS011;63804;53.120;8.764;2023-11-22T04:35:50;58.30;;;9.70;;
54919;SDS011;63804;53.120;8.764;2023-11-22T04:38:18;96.15;;;11.10;;
54919;SDS011;63804;53.120;8.764;2023-11-22T04:40:46;47.38;;;7.55;;
54919;SDS011;63804;53.120;8.764;2023-11-22T04:43:13;39.58;;;6.78;;
54919;SDS011;63804;53.120;8.764;2023-11-22T04:45:41;16.55;;;5.50;;
54919;SDS011;63804;53.120;8.764;2023-11-22T04:48:09;9.25;;;5.30;;
54919;SDS011;63804;53.120;8.764;2023-11-22T04:50:37;18.05;;;6.00;;
54919;SDS011;63804;53.120;8.764;2023-11-22T04:53:05;10.77;;;5.85;;
54919;SDS011;63804;53.120;8.764;2023-11-22T04:55:32;8.55;;;5.45;;
54919;SDS011;63804;53.120;8.764;2023-11-22T04:58:00;9.68;;;5.95;;
54919;SDS011;63804;53.120;8.764;2023-11-22T05:00:28;10.05;;;5.68;;
54919;SDS011;63804;53.120;8.764;2023-11-22T05:02:56;10.23;;;6.30;;
54919;SDS011;63804;53.120;8.764;2023-11-22T05:05:24;9.80;;;6.13;;
54919;SDS011;63804;53.120;8.764;2023-11-22T05:07:52;9.10;;;5.88;;
54919;SDS011;63804;53.120;8.764;2023-11-22T05:10:19;10.07;;;3.42;;
54919;SDS011;63804;53.120;8.764;2023-11-22T05:12:47;9.07;;;5.85;;
54919;SDS011;63804;53.120;8.764;2023-11-22T05:15:15;11.38;;;5.68;;
54919;SDS011;63804;53.120;8.764;2023-11-22T05:17:43;9.85;;;5.95;;
54919;SDS011;63804;53.120;8.764;2023-11-22T05:20:10;9.50;;;6.15;;
54919;SDS011;63804;53.120;8.764;2023-11-22T05:22:39;9.45;;;5.35;;
54919;SDS011;63804;53.120;8.764;2023-11-22T05:25:06;8.80;;;5.57;;
54919;SDS011;63804;53.120;8.764;2023-11-22T05:27:34;9.65;;;5.75;;
54919;SDS011;63804;53.120;8.764;2023-11-22T05:30:02;9.60;;;5.40;;
54919;SDS011;63804;53.120;8.764;2023-11-22T05:32:32;8.82;;;5.25;;
54919;SDS011;63804;53.120;8.764;2023-11-22T05:34:59;9.57;;;5.57;;
54919;SDS011;63804;53.120;8.764;2023-11-22T05:37:28;10.07;;;5.93;;
54919;SDS011;63804;53.120;8.764;2023-11-22T05:39:56;10.32;;;5.90;;
54919;SDS011;63804;53.120;8.764;2023-11-22T05:42:24;10.07;;;5.82;;
54919;SDS011;63804;53.120;8.764;2023-11-22T05:44:52;9.73;;;5.95;;
54919;SDS011;63804;53.120;8.764;2023-11-22T05:47:20;10.02;;;5.70;;
54919;SDS011;63804;53.120;8.764;2023-11-22T05:49:47;10.30;;;5.88;;
54919;SDS011;63804;53.120;8.764;2023-11-22T05:52:15;10.75;;;6.05;;
54919;SDS011;63804;53.120;8.764;2023-11-22T05:54:43;11.77;;;6.47;;
54919;SDS011;63804;53.120;8.764;2023-11-22T05:57:11;9.50;;;6.00;;
54919;SDS011;63804;53.120;8.764;2023-11-22T05:59:39;10.00;;;6.00;;
54919;SDS011;63804;53.120;8.764;2023-11-22T06:02:06;9.60;;;6.07;;
54919;SDS011;63804;53.120;8.764;2023-11-22T06:04:34;9.90;;;5.35;;
54919;SDS011;63804;53.120;8.764;2023-11-22T06:07:04;9.07;;;5.93;;
54919;SDS011;63804;53.120;8.764;2023-11-22T06:09:32;9.43;;;5.65;;
54919;SDS011;63804;53.120;8.764;2023-11-22T06:12:01;8.10;;;5.30;;
54919;SDS011;63804;53.120;8.764;2023-11-22T06:14:29;8.75;;;5.65;;
54919;SDS011;63804;53.120;8.764;2023-11-22T06:16:56;11.20;;;6.13;;
54919;SDS011;63804;53.120;8.764;2023-11-22T06:19:24;7.93;;;3.03;;
54919;SDS011;63804;53.120;8.764;2023-11-22T06:21:52;11.02;;;6.30;;
54919;SDS011;63804;53.120;8.764;2023-11-22T06:24:21;10.73;;;6.70;;
54919;SDS011;63804;53.120;8.764;2023-11-22T06:26:49;13.98;;;7.80;;
54919;SDS011;63804;53.120;8.764;2023-11-22T06:29:17;12.85;;;7.95;;
54919;SDS011;63804;53.120;8.764;2023-11-22T06:31:45;11.65;;;7.22;;
54919;SDS011;63804;53.120;8.764;2023-11-22T06:34:13;10.52;;;6.63;;
54919;SDS011;63804;53.120;8.764;2023-11-22T06:36:41;11.82;;;7.78;;
54919;SDS011;63804;53.120;8.764;2023-11-22T06:39:09;10.65;;;7.43;;
54919;SDS011;63804;53.120;8.764;2023-11-22T06:41:37;11.63;;;7.38;;
54919;SDS011;63804;53.120;8.764;2023-11-22T06:44:05;10.00;;;6.75;;
54919;SDS011;63804;53.120;8.764;2023-11-22T06:46:32;10.45;;;7.03;;
54919;SDS011;63804;53.120;8.764;2023-11-22T06:49:00;12.07;;;7.85;;
54919;SDS011;63804;53.120;8.764;2023-11-22T06:51:29;11.48;;;7.72;;
54919;SDS011;63804;53.120;8.764;2023-11-22T06:53:57;11.80;;;7.90;;
54919;SDS011;63804;53.120;8.764;2023-11-22T06:56:25;12.98;;;8.10;;
54919;SDS011;63804;53.120;8.764;2023-11-22T06:58:53;13.82;;;8.73;;
54919;SDS011;63804;53.120;8.764;2023-11-22T07:01:23;11.63;;;7.45;;
54919;SDS011;63804;53.120;8.764;2023-11-22T07:03:54;11.68;;;4.93;;
54919;SDS011;63804;53.120;8.764;2023-11-22T07:06:22;14.05;;;7.90;;
54919;SDS011;63804;53.120;8.764;2023-11-22T07:08:50;12.55;;;7.85;;
54919;SDS011;63804;53.120;8.764;2023-11-22T07:11:21;11.60;;;5.57;;
54919;SDS011;63804;53.120;8.764;2023-11-22T07:13:51;11.93;;;7.93;;
54919;SDS011;63804;53.120;8.764;2023-11-22T07:16:19;18.13;;;13.18;;
54919;SDS011;63804;53.120;8.764;2023-11-22T07:18:48;13.18;;;9.10;;
54919;SDS011;63804;53.120;8.764;2023-11-22T07:21:16;12.85;;;8.52;;
54919;SDS011;63804;53.120;8.764;2023-11-22T07:23:48;13.23;;;8.20;;
54919;SDS011;63804;53.120;8.764;2023-11-22T07:26:19;11.82;;;7.78;;
54919;SDS011;63804;53.120;8.764;2023-11-22T07:28:47;11.32;;;7.32;;
54919;SDS011;63804;53.120;8.764;2023-11-22T07:31:15;12.93;;;8.98;;
54919;SDS011;63804;53.120;8.764;2023-11-22T07:33:44;13.70;;;8.65;;
54919;SDS011;63804;53.120;8.764;2023-11-22T07:36:13;11.73;;;5.57;;
54919;SDS011;63804;53.120;8.764;2023-11-22T07:38:44;18.33;;;8.68;;
54919;SDS011;63804;53.120;8.764;2023-11-22T07:41:12;13.90;;;8.55;;
54919;SDS011;63804;53.120;8.764;2023-11-22T07:43:40;13.93;;;8.48;;
54919;SDS011;63804;53.120;8.764;2023-11-22T07:46:08;12.00;;;5.43;;
54919;SDS011;63804;53.120;8.764;2023-11-22T07:48:44;14.13;;;8.97;;
54919;SDS011;63804;53.120;8.764;2023-11-22T07:51:14;12.90;;;8.60;;
54919;SDS011;63804;53.120;8.764;2023-11-22T07:53:46;12.45;;;8.05;;
54919;SDS011;63804;53.120;8.764;2023-11-22T07:56:13;14.90;;;8.48;;
54919;SDS011;63804;53.120;8.764;2023-11-22T07:58:44;13.95;;;9.02;;
54919;SDS011;63804;53.120;8.764;2023-11-22T08:01:12;15.60;;;9.15;;
54919;SDS011;63804;53.120;8.764;2023-11-22T08:03:41;13.05;;;7.82;;
54919;SDS011;63804;53.120;8.764;2023-11-22T08:06:15;13.47;;;7.77;;
54919;SDS011;63804;53.120;8.764;2023-11-22T08:08:44;12.77;;;8.40;;
54919;SDS011;63804;53.120;8.764;2023-11-22T08:11:14;14.95;;;8.73;;
54919;SDS011;63804;53.120;8.764;2023-11-22T08:13:48;19.33;;;12.55;;
54919;SDS011;63804;53.120;8.764;2023-11-22T08:16:16;22.30;;;12.73;;
54919;SDS011;63804;53.120;8.764;2023-11-22T08:18:45;21.23;;;12.65;;
54919;SDS011;63804;53.120;8.764;2023-11-22T08:21:12;19.33;;;11.57;;
54919;SDS011;63804;53.120;8.764;2023-11-22T08:23:40;22.13;;;14.40;;
54919;SDS011;63804;53.120;8.764;2023-11-22T08:26:08;35.30;;;20.35;;
54919;SDS011;63804;53.120;8.764;2023-11-22T08:28:36;36.15;;;21.05;;
54919;SDS011;63804;53.120;8.764;2023-11-22T08:31:05;33.92;;;19.20;;
54919;SDS011;63804;53.120;8.764;2023-11-22T08:33:37;37.75;;;22.20;;
54919;SDS011;63804;53.120;8.764;2023-11-22T08:36:06;36.25;;;20.60;;
54919;SDS011;63804;53.120;8.764;2023-11-22T08:38:35;33.03;;;20.35;;
54919;SDS011;63804;53.120;8.764;2023-11-22T08:41:04;27.05;;;19.27;;
54919;SDS011;63804;53.120;8.764;2023-11-22T08:43:36;15.93;;;12.00;;
54919;SDS011;63804;53.120;8.764;2023-11-22T08:46:03;19.73;;;11.52;;
54919;SDS011;63804;53.120;8.764;2023-11-22T08:48:41;16.23;;;11.15;;
54919;SDS011;63804;53.120;8.764;2023-11-22T08:51:10;17.65;;;10.85;;
54919;SDS011;63804;53.120;8.764;2023-11-22T08:53:39;16.15;;;9.65;;
54919;SDS011;63804;53.120;8.764;2023-11-22T08:56:07;16.83;;;12.20;;
54919;SDS011;63804;53.120;8.764;2023-11-22T08:58:38;12.93;;;7.90;;
54919;SDS011;63804;53.120;8.764;2023-11-22T09:01:07;15.73;;;7.90;;
54919;SDS011;63804;53.120;8.764;2023-11-22T09:03:35;12.88;;;7.60;;
54919;SDS011;63804;53.120;8.764;2023-11-22T09:06:03;13.82;;;7.43;;
54919;SDS011;63804;53.120;8.764;2023-11-22T09:08:31;15.52;;;8.52;;
54919;SDS011;63804;53.120;8.764;2023-11-22T09:10:58;14.77;;;8.85;;
54919;SDS011;63804;53.120;8.764;2023-11-22T09:13:26;13.18;;;9.55;;
54919;SDS011;63804;53.120;8.764;2023-11-22T09:15:54;14.07;;;11.35;;
54919;SDS011;63804;53.120;8.764;2023-11-22T09:18:22;17.88;;;13.07;;
54919;SDS011;63804;53.120;8.764;2023-11-22T09:20:49;15.63;;;10.75;;
54919;SDS011;63804;53.120;8.764;2023-11-22T09:23:17;16.95;;;14.02;;
54919;SDS011;63804;53.120;8.764;2023-11-22T09:25:46;16.65;;;12.15;;
54919;SDS011;63804;53.120;8.764;2023-11-22T09:28:13;18.27;;;9.85;;
54919;SDS011;63804;53.120;8.764;2023-11-22T09:30:43;14.68;;;8.40;;
54919;SDS011;63804;53.120;8.764;2023-11-22T09:33:13;12.73;;;7.78;;
54919;SDS011;63804;53.120;8.764;2023-11-22T09:35:43;12.73;;;7.13;;
54919;SDS011;63804;53.120;8.764;2023-11-22T09:38:15;11.93;;;6.60;;
54919;SDS011;63804;53.120;8.764;2023-11-22T09:40:47;9.68;;;5.88;;
54919;SDS011;63804;53.120;8.764;2023-11-22T09:43:17;10.23;;;5.65;;
54919;SDS011;63804;53.120;8.764;2023-11-22T09:45:48;9.68;;;5.50;;
54919;SDS011;63804;53.120;8.764;2023-11-22T09:48:24;10.63;;;5.70;;
54919;SDS011;63804;53.120;8.764;2023-11-22T09:53:45;9.52;;;5.55;;
54919;SDS011;63804;53.120;8.764;2023-11-22T09:56:18;9.38;;;5.55;;
54919;SDS011;63804;53.120;8.764;2023-11-22T09:58:47;10.43;;;5.40;;
54919;SDS011;63804;53.120;8.764;2023-11-22T10:01:23;11.40;;;5.70;;
54919;SDS011;63804;53.120;8.764;2023-11-22T10:03:54;10.02;;;5.40;;
54919;SDS011;63804;53.120;8.764;2023-11-22T10:06:22;8.63;;;4.85;;
54919;SDS011;63804;53.120;8.764;2023-11-22T10:08:49;9.77;;;5.35;;
54919;SDS011;63804;53.120;8.764;2023-11-22T10:11:18;8.63;;;4.75;;
54919;SDS011;63804;53.120;8.764;2023-11-22T10:13:49;9.27;;;4.90;;
54919;SDS011;63804;53.120;8.764;2023-11-22T10:16:18;10.07;;;4.78;;
54919;SDS011;63804;53.120;8.764;2023-11-22T10:18:48;7.93;;;4.75;;
54919;SDS011;63804;53.120;8.764;2023-11-22T10:21:26;7.35;;;4.28;;
54919;SDS011;63804;53.120;8.764;2023-11-22T10:24:02;7.35;;;4.30;;
54919;SDS011;63804;53.120;8.764;2023-11-22T10:26:31;7.10;;;4.15;;
54919;SDS011;63804;53.120;8.764;2023-11-22T10:28:59;8.40;;;4.82;;
54919;SDS011;63804;53.120;8.764;2023-11-22T10:31:28;8.48;;;4.50;;
54919;SDS011;63804;53.120;8.764;2023-11-22T10:33:56;7.30;;;4.50;;
54919;SDS011;63804;53.120;8.764;2023-11-22T10:36:25;8.30;;;4.88;;
54919;SDS011;63804;53.120;8.764;2023-11-22T10:38:53;10.23;;;4.88;;
54919;SDS011;63804;53.120;8.764;2023-11-22T10:41:22;9.00;;;4.82;;
54919;SDS011;63804;53.120;8.764;2023-11-22T10:43:51;11.10;;;4.82;;
54919;SDS011;63804;53.120;8.764;2023-11-22T10:48:55;9.10;;;3.88;;
54919;SDS011;63804;53.120;8.764;2023-11-22T10:51:24;7.88;;;3.42;;
54919;SDS011;63804;53.120;8.764;2023-11-22T10:54:00;7.40;;;3.65;;
54919;SDS011;63804;53.120;8.764;2023-11-22T10:56:35;6.55;;;3.58;;
54919;SDS011;63804;53.120;8.764;2023-11-22T10:59:09;10.07;;;3.78;;
54919;SDS011;63804;53.120;8.764;2023-11-22T11:01:44;7.07;;;3.50;;
54919;SDS011;63804;53.120;8.764;2023-11-22T11:04:20;6.17;;;3.20;;
54919;SDS011;63804;53.120;8.764;2023-11-22T11:06:53;6.07;;;3.10;;
54919;SDS011;63804;53.120;8.764;2023-11-22T11:09:23;8.10;;;2.97;;
54919;SDS011;63804;53.120;8.764;2023-11-22T11:11:55;5.50;;;2.95;;
54919;SDS011;63804;53.120;8.764;2023-11-22T11:14:25;5.82;;;3.05;;
54919;SDS011;63804;53.120;8.764;2023-11-22T11:16:54;5.35;;;2.83;;
54919;SDS011;63804;53.120;8.764;2023-11-22T11:19:26;6.63;;;3.05;;
54919;SDS011;63804;53.120;8.764;2023-11-22T11:21:54;6.03;;;3.05;;
54919;SDS011;63804;53.120;8.764;2023-11-22T11:24:25;7.00;;;2.88;;
54919;SDS011;63804;53.120;8.764;2023-11-22T11:26:53;6.72;;;2.97;;
54919;SDS011;63804;53.120;8.764;2023-11-22T11:32:04;5.75;;;2.95;;
54919;SDS011;63804;53.120;8.764;2023-11-22T11:34:37;5.63;;;3.05;;
54919;SDS011;63804;53.120;8.764;2023-11-22T11:37:14;6.07;;;3.28;;
54919;SDS011;63804;53.120;8.764;2023-11-22T11:39:41;4.95;;;2.85;;
54919;SDS011;63804;53.120;8.764;2023-11-22T11:42:10;6.80;;;2.78;;
54919;SDS011;63804;53.120;8.764;2023-11-22T11:45:18;5.50;;;2.60;;
54919;SDS011;63804;53.120;8.764;2023-11-22T11:47:38;4.95;;;2.53;;
54919;SDS011;63804;53.120;8.764;2023-11-22T11:50:06;6.72;;;3.00;;
54919;SDS011;63804;53.120;8.764;2023-11-22T11:52:34;5.25;;;2.70;;
54919;SDS011;63804;53.120;8.764;2023-11-22T11:55:06;5.55;;;2.60;;
54919;SDS011;63804;53.120;8.764;2023-11-22T11:57:34;5.68;;;2.10;;
54919;SDS011;63804;53.120;8.764;2023-11-22T12:00:04;3.58;;;2.08;;
54919;SDS011;63804;53.120;8.764;2023-11-22T12:02:33;2.90;;;1.90;;
54919;SDS011;63804;53.120;8.764;2023-11-22T12:05:02;4.43;;;2.03;;
54919;SDS011;63804;53.120;8.764;2023-11-22T12:07:36;4.75;;;2.30;;
54919;SDS011;63804;53.120;8.764;2023-11-22T12:10:05;4.38;;;2.17;;
54919;SDS011;63804;53.120;8.764;2023-11-22T12:12:36;5.63;;;1.92;;
54919;SDS011;63804;53.120;8.764;2023-11-22T12:15:04;4.50;;;2.15;;
54919;SDS011;63804;53.120;8.764;2023-11-22T12:17:33;5.75;;;2.40;;
54919;SDS011;63804;53.120;8.764;2023-11-22T12:20:14;3.90;;;2.15;;
54919;SDS011;63804;53.120;8.764;2023-11-22T12:22:47;5.30;;;1.80;;
54919;SDS011;63804;53.120;8.764;2023-11-22T12:25:15;3.17;;;1.42;;
54919;SDS011;63804;53.120;8.764;2023-11-22T12:27:44;3.05;;;1.42;;
54919;SDS011;63804;53.120;8.764;2023-11-22T12:30:35;6.07;;;1.60;;
54919;SDS011;63804;53.120;8.764;2023-11-22T12:33:06;2.50;;;1.60;;
54919;SDS011;63804;53.120;8.764;2023-11-22T12:35:37;2.58;;;1.48;;
54919;SDS011;63804;53.120;8.764;2023-11-22T12:38:06;3.67;;;1.58;;
54919;SDS011;63804;53.120;8.764;2023-11-22T12:40:34;3.35;;;1.73;;
54919;SDS011;63804;53.120;8.764;2023-11-22T12:43:03;3.95;;;1.92;;
54919;SDS011;63804;53.120;8.764;2023-11-22T12:45:31;3.13;;;1.63;;
54919;SDS011;63804;53.120;8.764;2023-11-22T12:48:21;4.07;;;1.92;;
54919;SDS011;63804;53.120;8.764;2023-11-22T12:50:52;2.70;;;1.60;;
54919;SDS011;63804;53.120;8.764;2023-11-22T12:53:21;1.90;;;1.35;;
54919;SDS011;63804;53.120;8.764;2023-11-22T12:55:50;3.08;;;1.40;;
54919;SDS011;63804;53.120;8.764;2023-11-22T12:58:19;3.05;;;1.58;;
54919;SDS011;63804;53.120;8.764;2023-11-22T13:00:48;2.22;;;1.40;;
54919;SDS011;63804;53.120;8.764;2023-11-22T13:03:17;3.58;;;1.30;;
54919;SDS011;63804;53.120;8.764;2023-11-22T13:05:45;2.28;;;1.30;;
54919;SDS011;63804;53.120;8.764;2023-11-22T13:08:13;3.65;;;1.38;;
54919;SDS011;63804;53.120;8.764;2023-11-22T13:13:22;2.92;;;1.35;;
54919;SDS011;63804;53.120;8.764;2023-11-22T13:15:50;2.90;;;1.40;;
54919;SDS011;63804;53.120;8.764;2023-11-22T13:18:20;2.13;;;1.45;;
54919;SDS011;63804;53.120;8.764;2023-11-22T13:20:48;3.10;;;1.50;;
54919;SDS011;63804;53.120;8.764;2023-11-22T13:23:17;2.72;;;1.48;;
54919;SDS011;63804;53.120;8.764;2023-11-22T13:25:46;2.38;;;1.65;;
54919;SDS011;63804;53.120;8.764;2023-11-22T13:28:13;4.18;;;1.65;;
54919;SDS011;63804;53.120;8.764;2023-11-22T13:30:44;4.60;;;1.88;;
54919;SDS011;63804;53.120;8.764;2023-11-22T13:33:12;4.85;;;2.00;;
54919;SDS011;63804;53.120;8.764;2023-11-22T13:35:40;2.47;;;1.45;;
54919;SDS011;63804;53.120;8.764;2023-11-22T13:38:12;4.18;;;1.73;;
54919;SDS011;63804;53.120;8.764;2023-11-22T13:40:43;4.63;;;1.90;;
54919;SDS011;63804;53.120;8.764;2023-11-22T13:43:13;3.55;;;1.80;;
54919;SDS011;63804;53.120;8.764;2023-11-22T13:45:44;4.50;;;2.00;;
54919;SDS011;63804;53.120;8.764;2023-11-22T13:48:13;2.78;;;1.70;;
54919;SDS011;63804;53.120;8.764;2023-11-22T13:50:42;3.75;;;2.00;;
54919;SDS011;63804;53.120;8.764;2023-11-22T13:53:10;4.28;;;1.55;;
54919;SDS011;63804;53.120;8.764;2023-11-22T13:55:39;2.90;;;1.60;;
54919;SDS011;63804;53.120;8.764;2023-11-22T13:58:06;4.32;;;1.85;;
54919;SDS011;63804;53.120;8.764;2023-11-22T14:00:36;3.83;;;1.88;;
54919;SDS011;63804;53.120;8.764;2023-11-22T14:03:06;4.53;;;2.08;;
54919;SDS011;63804;53.120;8.764;2023-11-22T14:05:36;4.80;;;1.70;;
54919;SDS011;63804;53.120;8.764;2023-11-22T14:08:09;4.03;;;1.92;;
54919;SDS011;63804;53.120;8.764;2023-11-22T14:10:37;8.38;;;2.30;;
54919;SDS011;63804;53.120;8.764;2023-11-22T14:13:05;4.65;;;2.05;;
54919;SDS011;63804;53.120;8.764;2023-11-22T14:15:34;3.10;;;1.63;;
54919;SDS011;63804;53.120;8.764;2023-11-22T14:18:02;3.30;;;1.88;;
54919;SDS011;63804;53.120;8.764;2023-11-22T14:20:32;6.13;;;1.90;;
54919;SDS011;63804;53.120;8.764;2023-11-22T14:23:02;5.68;;;1.85;;
54919;SDS011;63804;53.120;8.764;2023-11-22T14:25:30;4.57;;;1.95;;
54919;SDS011;63804;53.120;8.764;2023-11-22T14:27:59;3.92;;;1.80;;
54919;SDS011;63804;53.120;8.764;2023-11-22T14:30:27;3.72;;;2.00;;
54919;SDS011;63804;53.120;8.764;2023-11-22T14:32:56;3.78;;;1.90;;
54919;SDS011;63804;53.120;8.764;2023-11-22T14:35:28;4.03;;;2.30;;
54919;SDS011;63804;53.120;8.764;2023-11-22T14:37:58;10.82;;;2.03;;
54919;SDS011;63804;53.120;8.764;2023-11-22T14:40:28;5.13;;;2.28;;
54919;SDS011;63804;53.120;8.764;2023-11-22T14:42:58;5.53;;;1.90;;
54919;SDS011;63804;53.120;8.764;2023-11-22T14:45:25;3.83;;;2.05;;
54919;SDS011;63804;53.120;8.764;2023-11-22T14:47:54;4.60;;;2.00;;
54919;SDS011;63804;53.120;8.764;2023-11-22T14:50:24;4.03;;;2.10;;
54919;SDS011;63804;53.120;8.764;2023-11-22T14:52:55;3.38;;;1.95;;
54919;SDS011;63804;53.120;8.764;2023-11-22T14:55:23;5.18;;;2.30;;
54919;SDS011;63804;53.120;8.764;2023-11-22T14:57:53;5.20;;;2.78;;
54919;SDS011;63804;53.120;8.764;2023-11-22T15:00:23;5.55;;;2.28;;
54919;SDS011;63804;53.120;8.764;2023-11-22T15:02:52;5.60;;;2.58;;